Time;durP1;ratioP1;P1;durP2;ratioP2;P2;SDS_P1;SDS_P2;PMS_P1;PMS_P2;Temp;Humidity;BMP_temperature;BMP_pressure;BME280_temperature;BME280_humidity;BME280_pressure;Samples;Min_cycle;Max_cycle;Signal;HPM_P1;HPM_P2
2022/11/02 00:09:41;;;;;;;31.10;19.30;;;;;;;11.52;83.55;98951.66;421126;1298;99788;-41
2022/11/02 00:19:45;;;;;;;31.40;18.60;;;;;;;11.34;83.56;98956.31;421101;1294;107621;-42
2022/11/02 00:29:49;;;;;;;28.30;18.10;;;;;;;11.19;83.75;98959.58;420953;1301;98035;-41
2022/11/02 00:39:52;;;;;;;32.30;19.60;;;;;;;11.16;83.85;98959.76;420423;1300;113015;-41
2022/11/02 00:49:56;;;;;;;26.10;17.70;;;;;;;11.13;83.83;98961.86;420464;1304;107387;-42
2022/11/02 01:00:00;;;;;;;26.60;19.00;;;;;;;11.08;83.98;98959.76;420731;1297;98066;-41
2022/11/02 01:10:02;;;;;;;30.00;19.80;;;;;;;10.98;84.06;98959.45;420717;1296;107570;-41
2022/11/02 01:20:08;;;;;;;30.60;19.30;;;;;;;10.96;84.13;98960.98;420869;1304;100023;-41
2022/11/02 01:30:13;;;;;;;29.70;19.20;;;;;;;10.92;84.19;98965.11;420782;1299;111635;-40
2022/11/02 01:40:17;;;;;;;30.30;19.20;;;;;;;10.79;84.15;98962.88;420590;1292;107738;-40
2022/11/02 01:50:23;;;;;;;30.70;19.80;;;;;;;10.68;84.30;98964.23;420672;1301;98029;-40
2022/11/02 02:00:26;;;;;;;33.90;22.30;;;;;;;10.57;84.37;98975.45;420349;1301;470646;-40
2022/11/02 02:10:30;;;;;;;34.40;21.70;;;;;;;10.48;84.38;98982.31;421730;1259;99265;-40
2022/11/02 02:20:46;;;;;;;33.50;23.20;;;;;;;10.45;84.60;98981.87;421086;1292;112129;-41
2022/11/02 02:30:57;;;;;;;32.70;21.90;;;;;;;10.38;84.60;98980.91;420810;1298;108161;-42
2022/11/02 02:41:03;;;;;;;33.20;21.60;;;;;;;10.24;84.53;98982.72;420772;1298;99500;-41
2022/11/02 02:51:11;;;;;;;35.00;20.20;;;;;;;10.14;84.82;98986.94;420842;1298;107709;-41
2022/11/02 03:01:18;;;;;;;35.50;23.40;;;;;;;10.09;84.74;98994.02;420943;1295;98244;-41
2022/11/02 03:11:22;;;;;;;34.80;22.10;;;;;;;9.95;84.91;98994.43;420867;1298;111466;-39
2022/11/02 03:21:26;;;;;;;35.90;22.50;;;;;;;9.86;84.92;98990.40;420711;1298;106919;-39
2022/11/02 03:31:34;;;;;;;41.90;23.40;;;;;;;9.76;85.13;98999.55;421239;1298;98841;-39
2022/11/02 03:41:41;;;;;;;35.60;21.80;;;;;;;9.74;85.31;99004.80;420979;1291;107620;-39
2022/11/02 03:51:47;;;;;;;35.20;21.90;;;;;;;9.75;85.32;99011.77;420805;1298;99246;-40
2022/11/02 04:01:51;;;;;;;37.40;23.40;;;;;;;9.71;85.47;99009.50;420614;1298;113083;-40
2022/11/02 04:43:02;;;;;;;42.50;25.00;;;;;;;9.73;86.01;99039.10;420813;1298;99281;-41
2022/11/02 05:03:09;;;;;;;34.10;24.30;;;;;;;9.65;85.92;99037.06;420857;1298;107628;-41
2022/11/02 05:13:15;;;;;;;35.50;24.50;;;;;;;9.65;86.20;99038.49;420652;1298;98051;-42
2022/11/02 05:23:20;;;;;;;39.00;22.60;;;;;;;9.69;86.26;99045.16;420792;1283;108255;-41
2022/11/02 05:33:24;;;;;;;35.20;21.60;;;;;;;9.66;86.16;99042.14;420847;1291;99381;-41
2022/11/02 05:43:32;;;;;;;;;;;;;;;9.61;86.26;99049.20;420726;1298;112248;-41
2022/11/02 06:03:39;;;;;;;31.50;20.90;;;;;;;9.73;86.58;99051.73;421005;1298;101606;-39
2022/11/02 06:13:43;;;;;;;38.00;20.90;;;;;;;9.91;86.40;99054.80;420852;1298;108408;-39
2022/11/02 06:23:46;;;;;;;39.00;21.80;;;;;;;10.07;86.43;99071.59;420653;1291;98005;-39
2022/11/02 06:33:50;;;;;;;35.70;22.90;;;;;;;10.39;86.64;99073.30;420765;1292;112222;-39
2022/11/02 06:43:53;;;;;;;37.00;23.80;;;;;;;10.78;86.55;99075.31;420651;1292;110422;-40
2022/11/02 06:53:57;;;;;;;38.60;23.10;;;;;;;11.27;86.59;99073.28;420962;1298;99950;-39
2022/11/02 07:04:01;;;;;;;37.70;23.50;;;;;;;12.17;86.60;99073.64;420961;1298;107340;-39
2022/11/02 07:14:04;;;;;;;30.90;20.60;;;;;;;13.16;86.44;99068.45;420889;1298;98063;-41
2022/11/02 07:24:08;;;;;;;28.90;17.50;;;;;;;14.35;86.03;99072.20;421028;1298;112211;-39
2022/11/02 07:44:20;;;;;;;28.90;16.50;;;;;;;15.94;84.67;99078.08;420528;1290;99251;-40
2022/11/02 07:54:24;;;;;;;26.20;15.40;;;;;;;16.42;83.84;99071.71;420792;1298;108875;-40
2022/11/02 08:04:27;;;;;;;22.60;13.40;;;;;;;16.71;82.74;99073.10;420616;1290;101525;-41
2022/11/02 08:14:31;;;;;;;17.70;11.80;;;;;;;16.50;82.21;99064.59;420708;1291;111995;-39
2022/11/02 08:24:35;;;;;;;17.30;10.00;;;;;;;16.39;81.05;99057.67;420786;1298;108498;-39
2022/11/02 08:34:38;;;;;;;13.70;9.80;;;;;;;15.92;80.46;99068.99;420872;1292;98058;-40
2022/11/02 08:44:42;;;;;;;17.10;10.00;;;;;;;15.66;79.40;99070.92;420846;1298;107760;-41
2022/11/02 08:54:46;;;;;;;11.70;9.20;;;;;;;15.54;78.94;99075.27;420856;1285;98875;-40
2022/11/02 09:04:49;;;;;;;18.00;8.00;;;;;;;15.41;78.08;99076.03;420871;1291;112155;-40
2022/11/02 09:14:53;;;;;;;12.80;7.10;;;;;;;15.49;77.33;99075.31;421019;1298;107354;-40
2022/11/02 09:24:56;;;;;;;18.50;9.30;;;;;;;15.66;77.12;99062.52;420866;1291;99209;-41
2022/11/02 09:45:05;;;;;;;13.70;10.00;;;;;;;15.97;76.81;99065.30;420840;1292;99253;-39
2022/11/02 09:55:10;;;;;;;15.90;11.00;;;;;;;16.06;76.47;99059.60;420805;1291;112215;-39
2022/11/02 10:05:20;;;;;;;17.40;8.40;;;;;;;16.06;76.05;99059.17;420767;1298;107455;-39
2022/11/02 10:25:43;;;;;;;10.10;5.30;;;;;;;15.81;75.46;99063.88;420934;1292;109447;-39
2022/11/02 10:36:02;;;;;;;7.90;5.40;;;;;;;15.37;74.62;99071.98;420980;1291;98086;-40
2022/11/02 10:46:29;;;;;;;11.90;5.70;;;;;;;15.50;74.93;99062.64;420706;1297;112370;-42
2022/11/02 10:56:32;;;;;;;6.00;3.50;;;;;;;15.77;73.15;99053.39;420616;1282;107602;-42
2022/11/02 11:06:38;;;;;;;8.90;4.20;;;;;;;15.79;72.15;99048.08;420910;1298;99177;-40
2022/11/02 11:16:45;;;;;;;7.10;4.10;;;;;;;15.77;71.35;99039.79;420806;1291;107779;-40
2022/11/02 11:27:05;;;;;;;9.50;3.40;;;;;;;15.67;70.76;99037.79;421090;1304;99259;-40
2022/11/02 11:37:10;;;;;;;14.80;5.10;;;;;;;15.62;70.79;99039.92;420993;1298;111404;-40
2022/11/02 11:47:14;;;;;;;10.00;4.80;;;;;;;15.65;71.12;99032.77;420934;1299;107695;-40
2022/11/02 11:57:22;;;;;;;9.60;4.30;;;;;;;15.70;71.22;99031.36;420950;1301;99249;-41
2022/11/02 12:07:41;;;;;;;11.30;4.60;;;;;;;15.68;71.29;99017.27;420669;1299;107737;-41
2022/11/02 12:17:46;;;;;;;;;;;;;;;15.62;70.79;99023.73;420973;1304;98841;-41
2022/11/02 12:38:00;;;;;;;6.60;3.90;;;;;;;15.50;70.41;99012.48;420935;1298;107639;-41
2022/11/02 12:48:04;;;;;;;7.40;3.80;;;;;;;15.54;70.20;99007.81;420919;1290;99241;-41
2022/11/02 12:58:12;;;;;;;7.60;3.50;;;;;;;15.59;70.08;99005.48;421134;1298;108644;-41
2022/11/02 13:08:15;;;;;;;11.20;5.50;;;;;;;15.57;69.70;99006.62;420682;1292;99865;-41
2022/11/02 13:18:23;;;;;;;21.60;13.80;;;;;;;15.50;69.05;99009.23;421195;1292;111728;-41
2022/11/02 13:28:27;;;;;;;7.60;4.40;;;;;;;15.33;68.55;99010.39;420656;1300;107634;-41
2022/11/02 13:38:34;;;;;;;9.40;5.80;;;;;;;15.14;67.72;99022.23;421113;1295;99221;-41
2022/11/02 13:48:49;;;;;;;41.40;22.40;;;;;;;14.93;67.63;99018.95;420760;1296;109288;-41
2022/11/02 13:58:56;;;;;;;14.10;9.10;;;;;;;14.73;67.32;99025.89;420573;1295;358111;-41
2022/11/02 14:09:04;;;;;;;14.60;6.50;;;;;;;14.51;67.57;99031.77;421022;1298;110239;-41
2022/11/02 14:19:21;;;;;;;19.60;8.00;;;;;;;14.34;67.70;99030.80;420728;1295;108288;-39
2022/11/02 14:29:47;;;;;;;9.20;5.10;;;;;;;14.13;67.68;99035.17;420798;1298;99250;-41
2022/11/02 14:39:58;;;;;;;13.70;6.60;;;;;;;13.88;67.55;99034.61;420820;1298;107298;-41
2022/11/02 14:50:00;;;;;;;14.80;6.10;;;;;;;13.61;67.23;99038.94;420988;1292;99272;-40
2022/11/02 15:00:17;;;;;;;8.00;5.20;;;;;;;13.28;67.34;99048.90;421035;1298;112001;-40
2022/11/02 15:10:38;;;;;;;7.00;4.70;;;;;;;12.92;67.54;99050.71;421374;1292;108300;-41
2022/11/02 15:30:48;;;;;;;21.90;8.80;;;;;;;12.26;67.95;99071.43;421803;1298;106473;-41
2022/11/02 15:51:10;;;;;;;18.50;10.50;;;;;;;11.77;68.49;99069.64;420816;1298;111506;-41
2022/11/02 16:01:19;;;;;;;21.20;10.80;;;;;;;11.59;68.71;99083.30;420809;1297;109479;-40
2022/11/02 16:11:23;;;;;;;22.40;9.10;;;;;;;11.39;69.05;99094.48;420994;1292;99252;-41
2022/11/02 16:21:27;;;;;;;20.70;9.60;;;;;;;11.18;69.32;99108.02;420587;1298;107857;-42
2022/11/02 16:31:31;;;;;;;31.60;14.10;;;;;;;11.05;69.74;99106.77;420673;1298;99233;-40
2022/11/02 16:41:36;;;;;;;28.00;12.40;;;;;;;11.01;70.13;99112.15;420878;1292;110918;-40
2022/11/02 16:51:40;;;;;;;24.20;13.00;;;;;;;10.96;70.40;99122.80;420603;1296;108163;-42
2022/11/02 17:01:44;;;;;;;30.80;18.90;;;;;;;10.85;70.85;99135.11;421346;1295;98059;-41
2022/11/02 17:11:49;;;;;;;37.20;20.40;;;;;;;10.61;71.07;99143.96;421050;1298;108838;-41
2022/11/02 17:22:09;;;;;;;28.70;18.50;;;;;;;10.50;71.72;99146.80;420923;1292;98841;-41
2022/11/02 17:32:15;;;;;;;22.90;13.00;;;;;;;10.49;71.83;99146.60;420550;1292;111201;-44
2022/11/02 17:52:43;;;;;;;25.50;12.10;;;;;;;10.78;72.63;99165.95;420505;1291;99247;-42
2022/11/02 18:02:49;;;;;;;22.40;12.40;;;;;;;10.91;72.76;99169.02;420773;1296;107197;-41
2022/11/02 18:12:52;;;;;;;27.70;12.80;;;;;;;10.79;72.91;99163.50;420781;1291;97998;-41
2022/11/02 18:22:56;;;;;;;40.90;18.60;;;;;;;10.57;72.98;99162.06;420736;1298;112063;-41
2022/11/02 18:43:07;;;;;;;31.90;15.50;;;;;;;10.37;73.55;99172.39;420691;1286;98847;-40
2022/11/02 18:53:11;;;;;;;26.10;13.20;;;;;;;10.57;73.98;99181.52;420743;1298;107321;-41
2022/11/02 19:03:16;;;;;;;19.00;9.40;;;;;;;10.75;74.10;99203.42;420861;1298;98924;-41
2022/11/02 19:13:20;;;;;;;17.70;9.90;;;;;;;10.75;73.97;99214.60;420795;1295;111148;-41
2022/11/02 19:23:23;;;;;;;18.40;10.60;;;;;;;10.67;74.23;99223.95;420901;1292;107251;-41
2022/11/02 19:33:28;;;;;;;19.80;11.10;;;;;;;10.54;74.40;99232.27;420720;1292;98835;-41
2022/11/02 19:43:32;;;;;;;22.30;9.40;;;;;;;10.45;74.52;99245.52;420744;1298;108605;-41
2022/11/02 19:53:36;;;;;;;13.70;8.00;;;;;;;10.42;74.60;99249.81;420662;1290;99278;-41
2022/11/02 20:03:40;;;;;;;23.30;6.50;;;;;;;10.41;74.69;99244.85;420665;1298;111576;-41
2022/11/02 20:13:45;;;;;;;12.40;6.90;;;;;;;10.41;74.70;99248.39;420671;1291;107180;-41
2022/11/02 20:23:49;;;;;;;19.20;7.80;;;;;;;10.33;74.74;99251.23;420751;1291;98047;-41
2022/11/02 20:33:53;;;;;;;22.20;10.80;;;;;;;10.14;74.92;99253.15;420954;1294;107635;-42
2022/11/02 20:43:57;;;;;;;22.70;10.70;;;;;;;9.93;74.85;99250.27;420250;1291;99253;-40
2022/11/02 20:54:02;;;;;;;19.30;9.50;;;;;;;9.74;75.02;99244.27;420667;1291;111472;-41
2022/11/02 21:04:05;;;;;;;24.90;10.00;;;;;;;9.59;75.15;99241.51;420669;1291;108292;-40
2022/11/02 21:14:08;;;;;;;17.90;8.70;;;;;;;9.50;75.40;99248.01;420777;1298;98063;-40
2022/11/02 21:24:12;;;;;;;22.20;9.80;;;;;;;9.45;75.71;99252.06;420798;1291;107931;-41
2022/11/02 21:34:16;;;;;;;21.30;10.30;;;;;;;9.32;75.88;99257.05;420813;1291;98052;-40
2022/11/02 21:44:19;;;;;;;26.60;11.70;;;;;;;9.15;75.85;99259.10;421029;1298;111209;-40
2022/11/02 21:54:23;;;;;;;27.20;10.20;;;;;;;9.06;75.94;99262.56;420767;1298;108224;-41
2022/11/02 22:14:30;;;;;;;16.50;8.40;;;;;;;8.91;76.17;99265.77;420802;1291;107124;-41
2022/11/02 22:24:34;;;;;;;17.50;9.20;;;;;;;8.76;76.21;99268.40;420831;1289;99236;-42
2022/11/02 22:34:37;;;;;;;21.20;9.20;;;;;;;8.51;76.38;99272.83;420597;1298;112360;-41
2022/11/02 22:44:41;;;;;;;23.10;10.70;;;;;;;8.31;76.47;99284.82;420598;1291;107988;-41
2022/11/02 22:54:44;;;;;;;19.30;12.40;;;;;;;8.14;76.76;99286.66;420662;1298;99291;-41
2022/11/02 23:04:48;;;;;;;20.10;10.50;;;;;;;8.04;76.88;99289.30;420856;1298;110568;-41
2022/11/02 23:14:51;;;;;;;23.30;11.60;;;;;;;7.99;77.22;99294.09;420957;1292;99230;-42
2022/11/02 23:45:39;;;;;;;21.90;10.00;;;;;;;7.65;77.72;99309.02;420567;1298;99162;-41
